Time;durP1;ratioP1;P1;durP2;ratioP2;P2;SDS_P1;SDS_P2;PMS_P1;PMS_P2;Temp;Humidity;BMP_temperature;BMP_pressure;BME280_temperature;BME280_humidity;BME280_pressure;Samples;Min_cycle;Max_cycle;Signal;HPM_P1;HPM_P2
2022/03/30 00:00:34;;;;;;;17.83;11.77;;;20.20;59.00;;;;;;4986554;28;20055;-13
2022/03/30 00:03:00;;;;;;;18.77;11.45;;;20.20;59.10;;;;;;4998101;28;20557;-14
2022/03/30 00:05:25;;;;;;;14.27;11.50;;;20.20;59.00;;;;;;4994918;28;20192;-14
2022/03/30 00:07:54;;;;;;;17.25;11.20;;;20.20;59.00;;;;;;4997351;28;20169;-14
2022/03/30 00:10:20;;;;;;;13.95;11.05;;;20.20;59.00;;;;;;4992330;28;20046;-14
2022/03/30 00:12:46;;;;;;;15.55;10.68;;;20.20;59.00;;;;;;4978501;28;20050;-13
2022/03/30 00:15:12;;;;;;;15.75;10.27;;;20.20;59.00;;;;;;4992345;28;20054;-14
2022/03/30 00:17:37;;;;;;;14.65;10.23;;;20.20;59.10;;;;;;4981181;28;20046;-14
2022/03/30 00:20:03;;;;;;;14.70;9.77;;;20.20;59.00;;;;;;4989028;28;20047;-13
2022/03/30 00:22:29;;;;;;;12.68;9.93;;;20.20;59.00;;;;;;4996246;28;20097;-16
2022/03/30 00:24:55;;;;;;;13.25;9.40;;;20.20;59.10;;;;;;4997402;28;20069;-14
2022/03/30 00:27:20;;;;;;;14.85;10.05;;;20.10;59.10;;;;;;4996789;28;20637;-15
2022/03/30 00:29:46;;;;;;;13.30;9.95;;;20.20;59.20;;;;;;4997156;28;20107;-13
2022/03/30 00:32:12;;;;;;;14.35;10.80;;;20.20;59.10;;;;;;4990704;28;20053;-13
2022/03/30 00:34:39;;;;;;;14.45;10.00;;;20.20;59.10;;;;;;4995535;28;20050;-14
2022/03/30 00:37:05;;;;;;;11.40;9.13;;;20.20;59.00;;;;;;4982992;28;20051;-14
2022/03/30 00:39:31;;;;;;;13.63;8.90;;;20.20;59.00;;;;;;4977119;28;20416;-13
2022/03/30 00:41:56;;;;;;;12.32;9.43;;;20.10;59.70;;;;;;4977955;28;20046;-14
2022/03/30 00:44:22;;;;;;;13.02;9.68;;;20.20;59.20;;;;;;4976772;28;20047;-14
2022/03/30 00:46:48;;;;;;;14.27;9.18;;;20.20;59.10;;;;;;4992605;28;20046;-14
2022/03/30 00:49:13;;;;;;;10.90;8.45;;;20.20;59.00;;;;;;4996706;28;20042;-12
2022/03/30 00:51:39;;;;;;;10.93;8.30;;;20.20;59.10;;;;;;4995241;28;20052;-13
2022/03/30 00:54:05;;;;;;;11.85;8.75;;;20.10;59.10;;;;;;4996186;28;20133;-14
2022/03/30 00:56:31;;;;;;;15.30;9.60;;;20.10;59.10;;;;;;4995307;28;20042;-13
2022/03/30 00:58:57;;;;;;;11.82;9.40;;;20.10;59.10;;;;;;4995136;28;20511;-13
2022/03/30 01:01:23;;;;;;;12.30;9.13;;;20.10;59.30;;;;;;4993848;28;20416;-14
2022/03/30 01:03:49;;;;;;;11.48;9.32;;;20.10;59.30;;;;;;4977519;28;20074;-13
2022/03/30 01:06:14;;;;;;;11.90;8.70;;;20.10;59.20;;;;;;4991235;28;20496;-14
2022/03/30 01:08:40;;;;;;;10.35;8.40;;;20.10;59.20;;;;;;4995150;28;20663;-14
2022/03/30 01:11:05;;;;;;;10.88;8.73;;;20.10;59.20;;;;;;4983396;28;20040;-13
2022/03/30 01:13:32;;;;;;;11.38;8.63;;;20.10;59.20;;;;;;4989945;28;20419;-13
2022/03/30 01:15:58;;;;;;;9.57;7.82;;;20.10;59.30;;;;;;4977179;28;20074;-14
2022/03/30 01:18:24;;;;;;;11.55;7.43;;;20.10;59.30;;;;;;4975049;28;20101;-13
2022/03/30 01:20:50;;;;;;;9.95;8.52;;;20.10;59.30;;;;;;4985259;28;20495;-14
2022/03/30 01:23:16;;;;;;;11.30;8.23;;;20.10;59.40;;;;;;4985907;28;20054;-14
2022/03/30 01:25:42;;;;;;;10.10;8.00;;;20.10;59.30;;;;;;4995672;28;20038;-12
2022/03/30 01:28:08;;;;;;;7.93;7.13;;;20.10;59.50;;;;;;4996085;28;20053;-13
2022/03/30 01:33:18;;;;;;;;;;;20.10;59.60;;;;;;4996983;28;20081;-14
2022/03/30 01:35:43;;;;;;;7.90;7.10;;;20.10;59.40;;;;;;4994156;28;19918;-13
2022/03/30 01:38:09;;;;;;;9.68;7.28;;;20.10;59.50;;;;;;4987107;28;20074;-14
2022/03/30 01:40:35;;;;;;;9.23;6.93;;;20.10;59.50;;;;;;4981668;28;20096;-14
2022/03/30 01:43:01;;;;;;;9.63;7.50;;;20.10;59.40;;;;;;4995516;28;20053;-13
2022/03/30 01:45:27;;;;;;;9.98;7.55;;;20.10;59.40;;;;;;4995330;28;20076;-13
2022/03/30 01:47:58;;;;;;;8.73;7.15;;;20.10;59.40;;;;;;4995357;28;20058;-14
2022/03/30 01:50:25;;;;;;;7.60;6.80;;;20.10;59.40;;;;;;4994728;28;20050;-14
2022/03/30 01:52:51;;;;;;;7.93;6.53;;;20.00;59.40;;;;;;4994778;28;20104;-13
2022/03/30 01:55:16;;;;;;;9.43;6.72;;;20.00;59.50;;;;;;4994380;28;20053;-13
2022/03/30 01:57:42;;;;;;;9.15;7.47;;;20.00;59.40;;;;;;4993531;28;20046;-12
2022/03/30 02:00:10;;;;;;;7.88;6.57;;;20.00;59.50;;;;;;4994911;28;20140;-13
2022/03/30 02:02:37;;;;;;;8.73;6.97;;;20.00;59.40;;;;;;4975415;28;20058;-14
2022/03/30 02:05:03;;;;;;;7.75;6.95;;;20.00;59.30;;;;;;4975987;28;20487;-13
2022/03/30 02:07:29;;;;;;;8.05;6.85;;;20.00;59.40;;;;;;4988711;28;20056;-13
2022/03/30 02:09:55;;;;;;;8.20;6.45;;;20.00;59.40;;;;;;4975475;28;20130;-14
2022/03/30 02:12:20;;;;;;;6.85;6.13;;;20.00;59.40;;;;;;4975985;28;20066;-14
2022/03/30 02:14:47;;;;;;;7.90;6.63;;;20.00;59.40;;;;;;4967534;28;20062;-13
2022/03/30 02:17:13;;;;;;;7.88;6.90;;;20.00;59.40;;;;;;4975581;28;20133;-14
2022/03/30 02:19:38;;;;;;;7.88;6.68;;;20.10;59.40;;;;;;4975815;28;20089;-14
2022/03/30 02:22:04;;;;;;;7.25;6.57;;;20.00;59.30;;;;;;4989799;28;20082;-13
2022/03/30 02:24:30;;;;;;;7.72;6.22;;;20.00;59.40;;;;;;4986328;28;20035;-14
2022/03/30 02:26:55;;;;;;;7.20;6.35;;;20.00;59.30;;;;;;4984068;28;20149;-14
2022/03/30 02:29:21;;;;;;;8.00;6.13;;;20.00;59.40;;;;;;4995039;28;20038;-14
2022/03/30 02:31:47;;;;;;;8.27;6.88;;;20.00;59.30;;;;;;4994225;28;20460;-14
2022/03/30 02:34:13;;;;;;;6.53;5.72;;;20.00;59.30;;;;;;4989782;28;20043;-14
2022/03/30 02:36:40;;;;;;;6.40;5.80;;;20.00;59.30;;;;;;4983380;28;20034;-13
2022/03/30 02:39:05;;;;;;;6.35;5.75;;;20.00;59.40;;;;;;4994796;28;20093;-13
2022/03/30 02:41:31;;;;;;;6.15;5.55;;;20.00;59.40;;;;;;4986232;28;20039;-13
2022/03/30 02:43:56;;;;;;;8.05;5.80;;;20.00;59.40;;;;;;4994833;28;20078;-13
2022/03/30 02:46:22;;;;;;;6.20;5.60;;;20.00;59.40;;;;;;4983462;28;20313;-13
2022/03/30 02:48:48;;;;;;;6.15;5.47;;;20.00;59.40;;;;;;4994185;28;20506;-14
2022/03/30 02:51:13;;;;;;;6.70;5.57;;;20.00;59.40;;;;;;4984150;28;20038;-14
2022/03/30 02:53:39;;;;;;;6.20;5.55;;;20.00;59.30;;;;;;4993796;28;20042;-12
2022/03/30 02:56:05;;;;;;;6.88;6.18;;;20.00;59.30;;;;;;4994589;28;20058;-13
2022/03/30 02:58:30;;;;;;;6.88;6.13;;;20.00;59.30;;;;;;4987555;28;20046;-13
2022/03/30 03:00:56;;;;;;;6.60;6.00;;;20.00;59.40;;;;;;4981504;28;20046;-14
2022/03/30 03:03:22;;;;;;;7.65;6.13;;;20.00;59.40;;;;;;4998073;28;20094;-13
2022/03/30 03:05:48;;;;;;;7.60;6.35;;;20.00;59.40;;;;;;4998092;28;20046;-13
2022/03/30 03:08:13;;;;;;;6.18;5.60;;;20.00;60.10;;;;;;4996179;28;20499;-13
2022/03/30 03:10:41;;;;;;;5.63;5.13;;;20.00;59.50;;;;;;4997062;28;20042;-14
2022/03/30 03:13:07;;;;;;;6.50;5.88;;;20.00;59.60;;;;;;4997979;28;20050;-13
2022/03/30 03:15:33;;;;;;;6.70;6.05;;;20.00;59.50;;;;;;4997544;28;20140;-14
2022/03/30 03:18:00;;;;;;;6.80;5.82;;;20.00;59.40;;;;;;4997505;28;20061;-14
2022/03/30 03:20:25;;;;;;;6.40;5.80;;;20.00;59.40;;;;;;4992183;28;20073;-14
2022/03/30 03:22:51;;;;;;;5.40;5.00;;;19.90;59.40;;;;;;4996745;28;20510;-13
2022/03/30 03:25:16;;;;;;;6.32;5.72;;;19.90;59.40;;;;;;4998037;28;20411;-14
2022/03/30 03:27:43;;;;;;;6.32;5.72;;;20.00;59.30;;;;;;4993423;28;20124;-14
2022/03/30 03:30:10;;;;;;;5.75;5.25;;;20.00;59.30;;;;;;4997910;28;20042;-13
2022/03/30 03:32:36;;;;;;;5.45;4.72;;;20.00;59.40;;;;;;4996223;28;20500;-13
2022/03/30 03:35:02;;;;;;;5.28;4.88;;;20.00;59.40;;;;;;4997290;28;20460;-14
2022/03/30 03:37:27;;;;;;;7.00;5.72;;;20.00;59.30;;;;;;4996529;28;20144;-15
2022/03/30 03:39:53;;;;;;;6.07;5.05;;;20.00;59.30;;;;;;4997703;28;20042;-14
2022/03/30 03:42:18;;;;;;;6.18;5.68;;;20.00;59.30;;;;;;4997667;28;20050;-13
2022/03/30 03:44:44;;;;;;;7.35;5.50;;;20.00;59.30;;;;;;4996565;28;20326;-14
2022/03/30 03:47:10;;;;;;;5.60;5.15;;;19.90;59.30;;;;;;4997717;28;20042;-14
2022/03/30 03:49:36;;;;;;;5.93;5.43;;;19.90;59.40;;;;;;4996827;28;20129;-14
2022/03/30 03:52:02;;;;;;;5.30;4.90;;;19.90;59.40;;;;;;4996960;28;20132;-13
2022/03/30 03:54:28;;;;;;;5.78;5.18;;;19.90;59.30;;;;;;4996226;28;20072;-14
2022/03/30 03:56:53;;;;;;;5.07;4.57;;;19.90;59.30;;;;;;4997297;28;20038;-14
2022/03/30 03:59:19;;;;;;;6.15;5.60;;;19.90;59.30;;;;;;4997533;28;20034;-14
2022/03/30 04:01:45;;;;;;;5.70;5.20;;;19.90;59.40;;;;;;4989148;28;20469;-12
2022/03/30 04:04:10;;;;;;;5.32;4.82;;;19.90;59.40;;;;;;4978214;28;20046;-14
2022/03/30 04:06:36;;;;;;;5.40;4.90;;;19.90;59.30;;;;;;4993737;28;20108;-14
2022/03/30 04:09:02;;;;;;;5.50;5.00;;;19.90;59.30;;;;;;4994730;28;20415;-14
2022/03/30 04:11:28;;;;;;;5.75;5.15;;;19.90;59.30;;;;;;4995763;28;20439;-16
2022/03/30 04:13:54;;;;;;;6.00;5.40;;;19.90;59.30;;;;;;4991745;28;20151;-13
2022/03/30 04:16:19;;;;;;;5.68;5.28;;;19.90;59.30;;;;;;4977813;28;20051;-14
2022/03/30 04:18:45;;;;;;;5.03;4.47;;;19.90;59.40;;;;;;4977170;28;20093;-13
2022/03/30 04:21:11;;;;;;;5.00;4.43;;;19.90;59.30;;;;;;4992961;28;20411;-13
2022/03/30 04:23:36;;;;;;;5.03;4.63;;;19.90;59.30;;;;;;4995008;28;20046;-14
2022/03/30 04:26:02;;;;;;;5.47;4.97;;;19.90;59.50;;;;;;4996795;28;20049;-14
2022/03/30 04:28:28;;;;;;;5.05;4.55;;;19.90;59.30;;;;;;4988597;28;20290;-15
2022/03/30 04:30:53;;;;;;;5.35;4.95;;;19.90;59.40;;;;;;4996550;28;20042;-14
2022/03/30 04:33:19;;;;;;;5.07;4.68;;;19.90;59.40;;;;;;4996799;28;20411;-16
2022/03/30 04:35:45;;;;;;;4.93;4.53;;;19.90;59.30;;;;;;4995029;28;20049;-14
2022/03/30 04:38:11;;;;;;;5.22;4.82;;;19.90;59.30;;;;;;4995025;28;20470;-14
2022/03/30 04:40:36;;;;;;;5.00;4.55;;;19.90;59.40;;;;;;4995904;28;20050;-15
2022/03/30 04:43:02;;;;;;;5.32;4.90;;;19.90;59.40;;;;;;4995864;28;20526;-15
2022/03/30 04:45:28;;;;;;;5.32;4.82;;;19.90;59.30;;;;;;4996859;28;20045;-15
2022/03/30 04:47:53;;;;;;;5.43;4.93;;;19.90;59.30;;;;;;4995009;28;20503;-15
2022/03/30 04:50:20;;;;;;;4.82;4.47;;;19.90;59.30;;;;;;4996958;28;20045;-15
2022/03/30 04:52:46;;;;;;;5.35;4.85;;;19.90;59.30;;;;;;4990782;28;20046;-14
2022/03/30 04:55:11;;;;;;;5.30;4.82;;;19.90;59.20;;;;;;4995355;28;20546;-14
2022/03/30 04:57:38;;;;;;;5.07;4.68;;;19.90;59.30;;;;;;4995591;28;20073;-13
2022/03/30 05:00:04;;;;;;;5.13;4.72;;;19.90;59.40;;;;;;4995205;28;20061;-14
2022/03/30 05:02:32;;;;;;;4.70;4.30;;;19.90;59.30;;;;;;4995579;28;20046;-15
2022/03/30 05:04:57;;;;;;;4.85;4.45;;;19.90;59.20;;;;;;4994961;28;20459;-15
2022/03/30 05:07:24;;;;;;;4.63;4.30;;;19.90;60.60;;;;;;4995509;28;20414;-14
2022/03/30 05:09:49;;;;;;;5.35;4.88;;;19.90;60.30;;;;;;4995474;28;20129;-14
2022/03/30 05:12:15;;;;;;;5.88;5.28;;;20.00;59.90;;;;;;4995597;28;20146;-14
2022/03/30 05:14:41;;;;;;;6.53;5.13;;;20.00;60.90;;;;;;4995687;28;20070;-14
2022/03/30 05:17:06;;;;;;;6.00;5.38;;;20.00;61.20;;;;;;4992978;28;20141;-14
2022/03/30 05:19:32;;;;;;;7.43;5.28;;;20.00;61.20;;;;;;4991598;28;20046;-15
2022/03/30 05:21:57;;;;;;;6.28;5.78;;;19.90;61.30;;;;;;4979319;28;20519;-13
2022/03/30 05:24:23;;;;;;;6.60;5.20;;;19.90;61.30;;;;;;4994572;28;20050;-14
2022/03/30 05:26:49;;;;;;;5.35;4.85;;;19.80;61.20;;;;;;4995172;28;20050;-14
2022/03/30 05:29:15;;;;;;;6.75;5.55;;;19.90;61.30;;;;;;4997073;28;20054;-14
2022/03/30 05:31:40;;;;;;;8.93;5.05;;;19.80;61.00;;;;;;4994779;28;20092;-14
2022/03/30 05:34:06;;;;;;;6.53;5.38;;;19.90;61.10;;;;;;4994583;28;20038;-15
2022/03/30 05:36:32;;;;;;;5.43;5.00;;;19.90;60.80;;;;;;4993255;28;20108;-14
2022/03/30 05:38:57;;;;;;;6.30;5.53;;;19.90;61.10;;;;;;4644335;28;9999933;-14
2022/03/30 05:41:23;;;;;;;5.88;5.30;;;20.00;61.20;;;;;;5004738;28;20042;-15
2022/03/30 05:43:48;;;;;;;8.55;6.68;;;19.90;61.20;;;;;;4991733;28;21715;-14
2022/03/30 05:46:14;;;;;;;9.57;6.00;;;19.90;61.50;;;;;;5003883;28;20042;-14
2022/03/30 05:48:39;;;;;;;9.60;6.22;;;19.90;61.40;;;;;;4991975;28;20073;-14
2022/03/30 05:51:05;;;;;;;9.82;5.38;;;20.00;62.10;;;;;;4988442;28;20066;-14
2022/03/30 05:53:31;;;;;;;9.20;6.03;;;20.00;61.60;;;;;;4982254;28;20062;-14
2022/03/30 05:55:56;;;;;;;6.13;5.53;;;20.00;61.30;;;;;;4980886;28;20154;-13
2022/03/30 05:58:22;;;;;;;6.10;5.55;;;20.00;61.50;;;;;;4993501;28;20718;-13
2022/03/30 06:00:48;;;;;;;11.88;5.70;;;20.00;61.50;;;;;;4977149;28;20053;-15
2022/03/30 06:03:14;;;;;;;10.88;6.20;;;20.00;61.40;;;;;;4976814;28;20519;-13
2022/03/30 06:05:39;;;;;;;8.57;5.40;;;20.10;61.40;;;;;;4993699;28;20046;-15
2022/03/30 06:08:06;;;;;;;8.80;5.10;;;20.10;61.80;;;;;;4994132;28;20054;-15
2022/03/30 06:10:31;;;;;;;10.48;6.22;;;20.00;61.60;;;;;;4991071;28;20149;-15
2022/03/30 06:12:57;;;;;;;9.25;5.85;;;20.00;61.70;;;;;;4992101;28;20220;-15
2022/03/30 06:15:23;;;;;;;14.43;5.68;;;20.00;61.70;;;;;;4976298;28;20121;-15
2022/03/30 06:17:49;;;;;;;9.93;5.88;;;20.00;61.70;;;;;;4974719;28;20054;-15
2022/03/30 06:20:15;;;;;;;6.53;5.60;;;20.00;61.70;;;;;;4991231;28;20451;-14
2022/03/30 06:22:41;;;;;;;6.72;6.05;;;20.00;61.40;;;;;;4987521;28;20408;-15
2022/03/30 06:25:09;;;;;;;9.38;6.25;;;20.00;61.70;;;;;;4978995;28;21286;-18
2022/03/30 06:27:35;;;;;;;6.30;5.30;;;19.90;61.90;;;;;;4979402;28;20320;-18
2022/03/30 06:30:03;;;;;;;6.45;5.32;;;20.00;61.80;;;;;;4979182;28;20061;-17
2022/03/30 06:32:29;;;;;;;14.07;6.68;;;20.00;61.60;;;;;;4979686;28;20058;-18
2022/03/30 06:34:54;;;;;;;6.85;6.10;;;20.00;61.70;;;;;;4981431;28;20090;-18
2022/03/30 06:37:20;;;;;;;8.85;5.80;;;19.90;61.60;;;;;;4984189;28;20481;-17
2022/03/30 06:39:45;;;;;;;7.20;5.40;;;20.00;61.40;;;;;;4982948;28;20046;-18
2022/03/30 06:42:11;;;;;;;7.07;5.80;;;20.00;61.40;;;;;;4985039;28;20133;-16
2022/03/30 06:44:37;;;;;;;6.35;5.70;;;20.00;61.40;;;;;;4982102;28;20423;-19
2022/03/30 06:47:03;;;;;;;7.80;5.47;;;20.00;61.30;;;;;;4983831;28;20054;-19
2022/03/30 06:49:29;;;;;;;6.75;5.10;;;19.90;61.60;;;;;;4984357;28;20208;-16
2022/03/30 06:51:54;;;;;;;8.80;6.30;;;20.00;61.30;;;;;;4982394;28;20058;-16
2022/03/30 06:54:20;;;;;;;9.65;5.82;;;20.00;61.10;;;;;;4981473;28;21244;-17
2022/03/30 06:56:46;;;;;;;8.43;6.20;;;20.00;60.90;;;;;;4983788;28;20466;-17
2022/03/30 06:59:13;;;;;;;11.85;6.47;;;20.10;61.00;;;;;;4983107;28;20544;-17
2022/03/30 07:01:39;;;;;;;8.48;5.70;;;20.10;60.90;;;;;;4983788;28;20088;-18
2022/03/30 07:04:04;;;;;;;6.57;5.75;;;20.10;60.80;;;;;;4982866;28;20070;-16
2022/03/30 07:06:30;;;;;;;7.43;5.20;;;20.10;60.80;;;;;;4981990;28;20077;-17
2022/03/30 07:11:40;;;;;;;;;;;20.10;60.70;;;;;;4983424;28;20061;-17
2022/03/30 07:14:06;;;;;;;6.25;5.65;;;20.10;60.60;;;;;;4982461;28;19929;-17
2022/03/30 07:16:31;;;;;;;6.63;5.97;;;20.10;60.50;;;;;;4982393;28;20153;-17
2022/03/30 07:18:57;;;;;;;6.43;5.82;;;20.20;60.60;;;;;;4983203;28;20050;-17
2022/03/30 07:21:22;;;;;;;7.20;6.30;;;20.20;60.50;;;;;;4983296;28;20054;-17
2022/03/30 07:23:48;;;;;;;7.05;5.60;;;20.20;60.40;;;;;;4983531;28;20145;-18
2022/03/30 07:26:13;;;;;;;8.30;5.88;;;20.20;60.30;;;;;;4983323;28;20049;-17
2022/03/30 07:28:39;;;;;;;7.05;5.85;;;20.20;60.30;;;;;;4982288;28;20054;-19
2022/03/30 07:31:05;;;;;;;6.22;5.63;;;20.20;60.20;;;;;;4983728;28;20050;-18
2022/03/30 07:33:32;;;;;;;5.85;5.35;;;20.20;60.30;;;;;;4983747;28;20065;-18
2022/03/30 07:35:58;;;;;;;5.55;5.15;;;20.20;60.20;;;;;;4982511;28;20051;-18
2022/03/30 07:38:23;;;;;;;7.55;5.40;;;20.20;60.20;;;;;;4982679;28;20061;-18
2022/03/30 07:40:50;;;;;;;5.90;5.32;;;20.20;60.10;;;;;;4983185;28;20057;-17
2022/03/30 07:43:16;;;;;;;7.55;5.30;;;20.20;60.10;;;;;;4982151;28;20213;-17
2022/03/30 07:45:42;;;;;;;5.45;4.93;;;20.30;60.10;;;;;;4981504;28;20077;-16
2022/03/30 07:48:12;;;;;;;5.80;5.20;;;20.30;60.00;;;;;;4984092;28;20097;-13
2022/03/30 07:50:38;;;;;;;5.78;5.28;;;20.30;60.10;;;;;;4983134;28;20046;-15
2022/03/30 07:53:04;;;;;;;5.32;4.80;;;20.30;59.90;;;;;;4983195;28;20051;-14
2022/03/30 07:55:29;;;;;;;5.80;5.40;;;20.30;59.90;;;;;;4983239;28;20147;-15
2022/03/30 07:57:55;;;;;;;5.93;5.20;;;20.30;60.00;;;;;;4982859;28;20077;-14
2022/03/30 08:00:21;;;;;;;5.82;5.22;;;20.30;59.90;;;;;;4984337;28;20054;-14
2022/03/30 08:02:47;;;;;;;5.53;5.03;;;20.30;60.10;;;;;;4983202;28;20046;-16
2022/03/30 08:05:13;;;;;;;5.55;5.10;;;20.30;59.90;;;;;;4981966;28;20142;-15
2022/03/30 08:07:43;;;;;;;8.00;5.55;;;20.30;59.90;;;;;;4983410;28;20645;-15
2022/03/30 08:10:09;;;;;;;5.35;4.95;;;20.30;59.80;;;;;;4982919;28;20112;-15
2022/03/30 08:12:38;;;;;;;5.50;5.00;;;20.30;60.10;;;;;;4983710;28;20070;-14
2022/03/30 08:15:04;;;;;;;6.00;5.53;;;20.30;60.30;;;;;;4980399;28;20054;-14
2022/03/30 08:17:29;;;;;;;5.50;5.00;;;20.30;60.20;;;;;;4982954;28;20050;-14
2022/03/30 08:19:57;;;;;;;5.00;4.47;;;20.30;60.30;;;;;;4982334;28;20046;-14
2022/03/30 08:22:26;;;;;;;4.88;4.55;;;20.20;60.20;;;;;;4983514;28;20755;-15
2022/03/30 08:24:55;;;;;;;5.32;4.90;;;20.20;60.00;;;;;;4980812;28;20050;-15
2022/03/30 08:27:22;;;;;;;5.13;4.72;;;20.30;59.80;;;;;;4983163;28;20046;-14
2022/03/30 08:29:49;;;;;;;5.55;5.03;;;20.40;59.70;;;;;;4981688;28;20054;-15
2022/03/30 08:32:15;;;;;;;5.75;5.25;;;20.40;59.70;;;;;;4983600;28;20046;-15
2022/03/30 08:34:41;;;;;;;5.13;4.72;;;20.30;59.70;;;;;;4982165;28;20061;-16
2022/03/30 08:37:06;;;;;;;5.10;4.80;;;20.40;59.60;;;;;;4981774;28;20051;-15
2022/03/30 08:39:35;;;;;;;5.55;5.05;;;20.30;59.60;;;;;;4982739;28;20054;-15
2022/03/30 08:42:03;;;;;;;5.63;5.18;;;20.40;59.70;;;;;;4982643;28;20129;-16
2022/03/30 08:44:28;;;;;;;5.65;5.10;;;20.40;59.50;;;;;;4979004;28;20054;-15
2022/03/30 08:46:54;;;;;;;5.32;4.85;;;20.40;59.50;;;;;;4981346;28;20061;-15
2022/03/30 08:49:20;;;;;;;4.82;4.53;;;20.40;59.60;;;;;;4980130;28;20754;-15
2022/03/30 08:51:47;;;;;;;5.32;4.82;;;20.30;59.50;;;;;;4981904;28;20050;-15
2022/03/30 08:54:13;;;;;;;5.00;4.55;;;20.40;59.50;;;;;;4981492;28;20058;-16
2022/03/30 08:56:39;;;;;;;5.05;4.72;;;20.40;59.60;;;;;;4979854;28;20050;-15
2022/03/30 08:59:06;;;;;;;4.30;3.83;;;20.40;59.60;;;;;;4981281;28;20081;-14
2022/03/30 09:01:35;;;;;;;4.43;4.03;;;20.40;59.60;;;;;;4982780;28;20074;-16
2022/03/30 09:04:03;;;;;;;4.88;4.43;;;20.40;59.50;;;;;;4981224;28;20876;-15
2022/03/30 09:06:38;;;;;;;5.20;4.70;;;20.40;59.50;;;;;;4981196;28;20130;-16
2022/03/30 09:09:04;;;;;;;4.82;4.45;;;20.40;59.50;;;;;;4979219;28;20639;-16
2022/03/30 09:11:40;;;;;;;4.60;4.30;;;20.40;59.50;;;;;;4980230;28;20046;-14
2022/03/30 09:14:14;;;;;;;4.94;4.01;;;20.40;59.50;;;;;;4929182;28;10001203;-15
2022/03/30 09:16:41;;;;;;;4.63;4.32;;;20.40;59.60;;;;;;4977036;28;20263;-15
2022/03/30 09:19:08;;;;;;;4.80;4.40;;;20.40;59.30;;;;;;4979335;28;20498;-14
2022/03/30 09:21:44;;;;;;;4.88;4.47;;;20.40;59.30;;;;;;4979167;28;20576;-15
2022/03/30 09:24:09;;;;;;;6.20;3.97;;;20.40;59.30;;;;;;4976688;28;20157;-15
2022/03/30 09:26:36;;;;;;;4.47;4.07;;;20.40;59.30;;;;;;4977161;28;20165;-15
2022/03/30 09:29:02;;;;;;;5.25;4.80;;;20.30;59.50;;;;;;4978833;28;20046;-16
2022/03/30 09:31:27;;;;;;;4.28;3.88;;;20.30;59.50;;;;;;4979069;28;20050;-18
2022/03/30 09:33:53;;;;;;;4.80;4.38;;;20.40;59.50;;;;;;4978171;28;20137;-16
2022/03/30 09:36:27;;;;;;;4.13;3.83;;;20.40;59.40;;;;;;4978123;28;20054;-17
2022/03/30 09:38:53;;;;;;;4.60;4.30;;;20.40;59.30;;;;;;4981239;28;20093;-15
2022/03/30 09:41:18;;;;;;;4.60;4.15;;;20.40;59.30;;;;;;4980036;28;20073;-15
2022/03/30 09:43:44;;;;;;;4.28;3.97;;;20.40;59.30;;;;;;4980265;28;20054;-18
2022/03/30 09:46:11;;;;;;;5.13;4.60;;;20.40;59.20;;;;;;4976483;28;20609;-16
2022/03/30 09:48:49;;;;;;;4.38;3.88;;;20.40;59.30;;;;;;4978714;28;20061;-16
2022/03/30 09:51:18;;;;;;;4.82;4.40;;;20.40;59.30;;;;;;4979401;28;20506;-15
2022/03/30 09:53:44;;;;;;;4.13;3.83;;;20.40;59.40;;;;;;4980574;28;20137;-15
2022/03/30 09:56:23;;;;;;;4.13;3.72;;;20.40;59.40;;;;;;4976956;28;20057;-17
2022/03/30 09:58:49;;;;;;;4.75;4.35;;;20.40;59.20;;;;;;4980367;28;20058;-16
2022/03/30 10:01:22;;;;;;;4.70;4.40;;;20.40;59.20;;;;;;4980138;28;20101;-16
2022/03/30 10:03:49;;;;;;;4.35;4.05;;;20.50;59.10;;;;;;4978932;28;20057;-16
2022/03/30 10:06:20;;;;;;;4.85;4.50;;;20.40;59.10;;;;;;4978356;28;20056;-16
2022/03/30 10:08:46;;;;;;;4.95;4.55;;;20.50;59.10;;;;;;4979882;28;20061;-16
2022/03/30 10:11:18;;;;;;;5.20;3.80;;;20.50;59.10;;;;;;4976189;28;20117;-16
2022/03/30 10:13:48;;;;;;;4.65;4.25;;;20.40;59.10;;;;;;4977359;28;20056;-16
2022/03/30 10:16:17;;;;;;;3.67;3.47;;;20.40;59.30;;;;;;4974644;28;20085;-16
2022/03/30 10:18:42;;;;;;;4.05;3.75;;;20.40;59.30;;;;;;4978387;28;20050;-17
2022/03/30 10:21:22;;;;;;;3.60;3.40;;;20.40;59.30;;;;;;4977356;28;20165;-17
2022/03/30 10:24:19;;;;;;;4.13;3.83;;;20.40;59.50;;;;;;4975779;28;20065;-16
2022/03/30 10:27:14;;;;;;;4.30;3.60;;;20.40;59.40;;;;;;4992787;28;20169;-15
2022/03/30 10:29:46;;;;;;;;;;;20.50;59.20;;;;;;4976426;28;20060;-15
2022/03/30 10:32:18;;;;;;;3.72;3.42;;;20.60;59.10;;;;;;4978728;28;19972;-19
2022/03/30 10:34:56;;;;;;;3.58;3.28;;;20.50;59.10;;;;;;4982990;28;20125;-16
2022/03/30 10:37:41;;;;;;;4.10;3.75;;;20.50;59.40;;;;;;4975166;28;20055;-15
2022/03/30 10:40:09;;;;;;;3.67;3.47;;;20.40;59.60;;;;;;4988936;28;20070;-14
2022/03/30 10:42:47;;;;;;;4.07;3.78;;;20.40;59.50;;;;;;4994088;28;20077;-15
2022/03/30 10:45:24;;;;;;;3.88;3.30;;;20.50;59.40;;;;;;4993026;28;20122;-15
2022/03/30 10:48:11;;;;;;;5.20;4.05;;;20.50;59.10;;;;;;4982748;28;20050;-17
2022/03/30 10:50:45;;;;;;;4.30;4.00;;;20.50;59.40;;;;;;4992766;28;20051;-15
2022/03/30 10:53:30;;;;;;;;;;;20.40;59.40;;;;;;4993964;28;20511;-14
2022/03/30 10:56:18;;;;;;;5.60;3.50;;;20.50;59.40;;;;;;4992133;28;20382;-14
2022/03/30 10:58:49;;;;;;;4.57;4.18;;;20.50;59.40;;;;;;4991511;28;20057;-16
2022/03/30 11:01:19;;;;;;;5.65;4.18;;;20.50;59.30;;;;;;4988110;28;20141;-13
2022/03/30 11:04:18;;;;;;;4.75;4.22;;;20.40;59.50;;;;;;4991700;28;20679;-14
2022/03/30 11:06:45;;;;;;;4.57;4.07;;;20.50;59.40;;;;;;4994555;28;20050;-14
2022/03/30 11:09:30;;;;;;;3.95;3.72;;;20.50;59.50;;;;;;4992382;28;20562;-14
2022/03/30 11:11:55;;;;;;;;;;;20.50;59.50;;;;;;4991778;28;20128;-13
2022/03/30 11:14:45;;;;;;;4.03;3.55;;;20.40;59.60;;;;;;4989725;28;19921;-14
2022/03/30 11:17:12;;;;;;;4.40;3.92;;;20.40;59.60;;;;;;4989113;28;20042;-14
2022/03/30 11:19:47;;;;;;;4.80;4.03;;;20.40;59.70;;;;;;4986114;28;20047;-13
2022/03/30 11:22:29;;;;;;;4.20;3.90;;;20.50;59.70;;;;;;4999645;28;20085;-13
2022/03/30 11:25:23;;;;;;;4.28;3.55;;;20.50;59.70;;;;;;4985996;28;20053;-14
2022/03/30 11:27:58;;;;;;;3.75;3.45;;;20.40;59.80;;;;;;4992260;28;20042;-14
2022/03/30 11:30:37;;;;;;;4.22;3.92;;;20.40;59.80;;;;;;4994722;28;20046;-14
2022/03/30 11:33:06;;;;;;;4.25;3.95;;;20.40;59.80;;;;;;4993457;28;20070;-14
2022/03/30 11:35:39;;;;;;;6.50;4.05;;;20.40;59.80;;;;;;4994802;28;20042;-15
2022/03/30 11:38:32;;;;;;;3.83;3.53;;;20.40;59.80;;;;;;4993530;28;20602;-14
2022/03/30 11:40:59;;;;;;;4.20;3.85;;;20.40;60.00;;;;;;4993652;28;20104;-13
2022/03/30 11:43:25;;;;;;;4.45;3.42;;;20.40;60.10;;;;;;4994656;28;20733;-13
2022/03/30 11:45:53;;;;;;;4.70;3.80;;;20.40;60.00;;;;;;4991758;28;20054;-13
2022/03/30 11:48:19;;;;;;;3.88;3.58;;;20.30;60.10;;;;;;4998664;28;20053;-14
2022/03/30 11:50:48;;;;;;;4.53;3.70;;;20.30;60.30;;;;;;5003620;28;20050;-14
2022/03/30 11:53:21;;;;;;;3.55;3.22;;;20.30;60.30;;;;;;4987777;28;20483;-14
2022/03/30 11:55:51;;;;;;;4.57;4.13;;;20.40;60.00;;;;;;4995154;28;20132;-13
2022/03/30 11:58:29;;;;;;;3.60;3.30;;;20.40;60.10;;;;;;4995550;28;20121;-14
2022/03/30 12:00:56;;;;;;;4.30;4.00;;;20.40;60.00;;;;;;4977041;28;20515;-14
2022/03/30 12:03:22;;;;;;;4.78;3.72;;;20.40;60.00;;;;;;4982230;28;20046;-14
2022/03/30 12:05:52;;;;;;;4.93;3.80;;;20.50;60.90;;;;;;4993701;28;20038;-13
2022/03/30 12:08:18;;;;;;;3.60;3.33;;;20.40;60.10;;;;;;4994189;28;20092;-14
2022/03/30 12:10:43;;;;;;;3.45;3.00;;;20.40;59.90;;;;;;4997088;28;20088;-14
2022/03/30 12:13:09;;;;;;;3.55;3.22;;;20.40;59.70;;;;;;4994001;28;20046;-13
2022/03/30 12:15:36;;;;;;;3.78;3.40;;;20.40;59.70;;;;;;4993178;28;20046;-13
2022/03/30 12:18:02;;;;;;;4.38;3.20;;;20.50;59.70;;;;;;4994714;28;20054;-13
2022/03/30 12:20:34;;;;;;;4.03;3.72;;;20.50;59.50;;;;;;4996604;28;20042;-13
2022/03/30 12:23:02;;;;;;;4.03;3.72;;;20.40;59.80;;;;;;4996313;28;20057;-14
2022/03/30 12:25:30;;;;;;;3.42;3.22;;;20.40;59.80;;;;;;4994439;28;20519;-14
2022/03/30 12:27:55;;;;;;;3.70;3.50;;;20.40;59.90;;;;;;4997850;28;20050;-12
2022/03/30 12:30:21;;;;;;;2.80;2.60;;;20.30;60.10;;;;;;4992967;28;20053;-13
2022/03/30 12:32:47;;;;;;;4.88;3.67;;;20.40;60.30;;;;;;4991532;28;20042;-14
2022/03/30 12:35:16;;;;;;;3.53;3.22;;;20.40;59.90;;;;;;4998833;28;20072;-15
2022/03/30 12:37:45;;;;;;;4.78;4.20;;;20.40;59.80;;;;;;5000686;28;20053;-13
2022/03/30 12:40:32;;;;;;;4.40;3.97;;;20.40;59.80;;;;;;4996321;28;20042;-14
2022/03/30 12:42:59;;;;;;;4.95;3.83;;;20.40;59.80;;;;;;4991423;28;20088;-16
2022/03/30 12:45:25;;;;;;;6.30;3.92;;;20.40;59.80;;;;;;4996594;28;20035;-14
2022/03/30 12:47:54;;;;;;;3.50;3.30;;;20.40;59.70;;;;;;4989999;28;20050;-16
2022/03/30 12:50:31;;;;;;;3.50;3.20;;;20.40;59.50;;;;;;4990392;28;20042;-14
2022/03/30 12:53:03;;;;;;;3.45;3.15;;;20.40;59.50;;;;;;4988439;28;20133;-14